sensor_id;sensor_type;location;lat;lon;timestamp;pressure;altitude;pressure_sealevel;temperature;humidity
28626;BME280;18905;42.668;23.364;2024-03-25T00:01:03;93863.31;;;2.31;87.02
28626;BME280;18905;42.668;23.364;2024-03-25T00:03:28;93870.09;;;2.12;86.98
28626;BME280;18905;42.668;23.364;2024-03-25T00:05:54;93877.78;;;2.02;88.03
28626;BME280;18905;42.668;23.364;2024-03-25T00:08:19;93869.31;;;1.83;87.27
28626;BME280;18905;42.668;23.364;2024-03-25T00:10:45;93864.00;;;1.74;88.14
28626;BME280;18905;42.668;23.364;2024-03-25T00:13:10;93868.56;;;1.77;88.01
28626;BME280;18905;42.668;23.364;2024-03-25T00:15:36;93877.31;;;1.61;88.40
28626;BME280;18905;42.668;23.364;2024-03-25T00:18:05;93867.44;;;1.60;89.30
28626;BME280;18905;42.668;23.364;2024-03-25T00:20:31;93841.28;;;1.59;88.83
28626;BME280;18905;42.668;23.364;2024-03-25T00:22:56;93855.84;;;1.82;88.88
28626;BME280;18905;42.668;23.364;2024-03-25T00:25:21;93860.69;;;1.79;88.22
28626;BME280;18905;42.668;23.364;2024-03-25T00:27:47;93852.88;;;1.70;89.18
28626;BME280;18905;42.668;23.364;2024-03-25T00:30:13;93845.44;;;1.79;88.70
28626;BME280;18905;42.668;23.364;2024-03-25T00:32:38;93837.13;;;1.73;89.08
28626;BME280;18905;42.668;23.364;2024-03-25T00:35:04;93840.38;;;1.79;88.61
28626;BME280;18905;42.668;23.364;2024-03-25T00:37:30;93844.75;;;1.73;89.07
28626;BME280;18905;42.668;23.364;2024-03-25T00:39:55;93838.03;;;1.87;89.60
28626;BME280;18905;42.668;23.364;2024-03-25T00:42:21;93835.44;;;1.92;88.72
28626;BME280;18905;42.668;23.364;2024-03-25T00:44:46;93834.91;;;1.95;88.97
28626;BME280;18905;42.668;23.364;2024-03-25T00:47:12;93829.34;;;2.22;88.34
28626;BME280;18905;42.668;23.364;2024-03-25T00:49:38;93831.56;;;2.29;88.37
28626;BME280;18905;42.668;23.364;2024-03-25T00:52:04;93836.16;;;2.27;88.56
28626;BME280;18905;42.668;23.364;2024-03-25T00:54:29;93834.75;;;2.44;88.42
28626;BME280;18905;42.668;23.364;2024-03-25T00:56:55;93832.66;;;2.70;86.91
28626;BME280;18905;42.668;23.364;2024-03-25T00:59:20;93823.09;;;2.62;87.73
28626;BME280;18905;42.668;23.364;2024-03-25T01:01:45;93820.09;;;2.60;87.92
28626;BME280;18905;42.668;23.364;2024-03-25T01:04:11;93823.59;;;2.64;86.80
28626;BME280;18905;42.668;23.364;2024-03-25T01:06:36;93820.63;;;2.57;87.24
28626;BME280;18905;42.668;23.364;2024-03-25T01:09:02;93816.50;;;2.61;87.36
28626;BME280;18905;42.668;23.364;2024-03-25T01:11:27;93828.13;;;2.67;87.51
28626;BME280;18905;42.668;23.364;2024-03-25T01:13:52;93808.91;;;2.79;86.69
28626;BME280;18905;42.668;23.364;2024-03-25T01:16:18;93792.78;;;2.89;87.02
28626;BME280;18905;42.668;23.364;2024-03-25T01:18:43;93798.41;;;2.86;86.76
28626;BME280;18905;42.668;23.364;2024-03-25T01:21:08;93789.69;;;3.11;86.19
28626;BME280;18905;42.668;23.364;2024-03-25T01:23:34;93784.81;;;2.96;85.88
28626;BME280;18905;42.668;23.364;2024-03-25T01:26:00;93794.16;;;3.00;87.21
28626;BME280;18905;42.668;23.364;2024-03-25T01:28:25;93789.50;;;3.07;87.63
28626;BME280;18905;42.668;23.364;2024-03-25T01:30:51;93795.53;;;3.11;86.86
28626;BME280;18905;42.668;23.364;2024-03-25T01:33:16;93808.28;;;3.30;86.09
28626;BME280;18905;42.668;23.364;2024-03-25T01:35:42;93801.25;;;3.22;87.25
28626;BME280;18905;42.668;23.364;2024-03-25T01:38:07;93806.63;;;3.39;85.56
28626;BME280;18905;42.668;23.364;2024-03-25T01:40:33;93813.63;;;3.47;85.92
28626;BME280;18905;42.668;23.364;2024-03-25T01:43:00;93812.66;;;3.61;85.16
28626;BME280;18905;42.668;23.364;2024-03-25T01:45:27;93803.72;;;3.64;85.05
28626;BME280;18905;42.668;23.364;2024-03-25T01:47:53;93808.25;;;3.67;83.22
28626;BME280;18905;42.668;23.364;2024-03-25T01:50:21;93802.47;;;3.94;82.53
28626;BME280;18905;42.668;23.364;2024-03-25T01:52:47;93791.66;;;4.02;82.17
28626;BME280;18905;42.668;23.364;2024-03-25T01:55:15;93796.41;;;3.90;82.47
28626;BME280;18905;42.668;23.364;2024-03-25T01:57:43;93807.06;;;3.78;83.09
28626;BME280;18905;42.668;23.364;2024-03-25T02:00:10;93811.53;;;3.86;82.93
28626;BME280;18905;42.668;23.364;2024-03-25T02:02:38;93820.41;;;3.89;83.46
28626;BME280;18905;42.668;23.364;2024-03-25T02:05:07;93823.88;;;3.60;84.69
28626;BME280;18905;42.668;23.364;2024-03-25T02:07:35;93831.50;;;3.60;84.49
28626;BME280;18905;42.668;23.364;2024-03-25T02:10:02;93822.50;;;3.49;84.97
28626;BME280;18905;42.668;23.364;2024-03-25T02:12:29;93831.94;;;3.30;84.58
28626;BME280;18905;42.668;23.364;2024-03-25T02:14:55;93838.13;;;3.24;85.63
28626;BME280;18905;42.668;23.364;2024-03-25T02:17:20;93834.63;;;3.20;85.40
28626;BME280;18905;42.668;23.364;2024-03-25T02:19:46;93824.75;;;2.95;85.74
28626;BME280;18905;42.668;23.364;2024-03-25T02:22:11;93824.38;;;2.83;85.67
28626;BME280;18905;42.668;23.364;2024-03-25T02:24:38;93831.75;;;2.84;86.24
28626;BME280;18905;42.668;23.364;2024-03-25T02:27:03;93825.38;;;2.63;86.01
28626;BME280;18905;42.668;23.364;2024-03-25T02:29:35;93824.59;;;2.63;85.96
28626;BME280;18905;42.668;23.364;2024-03-25T02:32:01;93827.22;;;2.58;85.47
28626;BME280;18905;42.668;23.364;2024-03-25T02:34:26;93827.22;;;2.58;86.50
28626;BME280;18905;42.668;23.364;2024-03-25T02:36:52;93831.66;;;2.71;85.79
28626;BME280;18905;42.668;23.364;2024-03-25T02:39:19;93829.25;;;2.79;85.10
28626;BME280;18905;42.668;23.364;2024-03-25T02:41:46;93826.47;;;2.57;86.45
28626;BME280;18905;42.668;23.364;2024-03-25T02:44:11;93831.53;;;2.81;85.74
28626;BME280;18905;42.668;23.364;2024-03-25T02:46:39;93836.03;;;2.89;86.24
28626;BME280;18905;42.668;23.364;2024-03-25T02:49:05;93831.28;;;3.01;84.95
28626;BME280;18905;42.668;23.364;2024-03-25T02:51:31;93829.94;;;2.85;84.15
28626;BME280;18905;42.668;23.364;2024-03-25T02:53:56;93847.50;;;2.86;83.90
28626;BME280;18905;42.668;23.364;2024-03-25T02:56:21;93850.84;;;2.82;85.34
28626;BME280;18905;42.668;23.364;2024-03-25T02:58:46;93847.53;;;3.05;85.01
28626;BME280;18905;42.668;23.364;2024-03-25T03:01:12;93843.84;;;3.16;84.30
28626;BME280;18905;42.668;23.364;2024-03-25T03:03:37;93847.66;;;2.95;83.60
28626;BME280;18905;42.668;23.364;2024-03-25T03:06:03;93857.34;;;2.93;84.46
28626;BME280;18905;42.668;23.364;2024-03-25T03:08:28;93858.78;;;2.99;84.23
28626;BME280;18905;42.668;23.364;2024-03-25T03:10:54;93859.28;;;3.01;83.73
28626;BME280;18905;42.668;23.364;2024-03-25T03:13:19;93866.78;;;3.11;82.92
28626;BME280;18905;42.668;23.364;2024-03-25T03:15:44;93867.91;;;3.05;83.03
28626;BME280;18905;42.668;23.364;2024-03-25T03:18:10;93858.06;;;3.17;81.72
28626;BME280;18905;42.668;23.364;2024-03-25T03:20:36;93848.97;;;3.11;81.71
28626;BME280;18905;42.668;23.364;2024-03-25T03:23:01;93860.16;;;2.92;83.18
28626;BME280;18905;42.668;23.364;2024-03-25T03:25:26;93865.59;;;3.04;82.34
28626;BME280;18905;42.668;23.364;2024-03-25T03:27:52;93868.16;;;3.04;83.32
28626;BME280;18905;42.668;23.364;2024-03-25T03:30:17;93873.63;;;2.92;82.75
28626;BME280;18905;42.668;23.364;2024-03-25T03:32:42;93881.72;;;2.94;82.13
28626;BME280;18905;42.668;23.364;2024-03-25T03:35:08;93885.31;;;2.93;82.71
28626;BME280;18905;42.668;23.364;2024-03-25T03:37:33;93881.84;;;3.08;82.18
28626;BME280;18905;42.668;23.364;2024-03-25T03:39:58;93882.66;;;3.03;82.43
28626;BME280;18905;42.668;23.364;2024-03-25T03:42:24;93884.72;;;3.01;82.07
28626;BME280;18905;42.668;23.364;2024-03-25T03:44:49;93875.63;;;3.19;80.55
28626;BME280;18905;42.668;23.364;2024-03-25T03:47:14;93883.03;;;3.15;82.10
28626;BME280;18905;42.668;23.364;2024-03-25T03:49:40;93881.72;;;3.18;81.82
28626;BME280;18905;42.668;23.364;2024-03-25T03:52:05;93885.53;;;3.20;81.56
28626;BME280;18905;42.668;23.364;2024-03-25T03:54:31;93888.50;;;3.27;82.00
28626;BME280;18905;42.668;23.364;2024-03-25T03:56:56;93892.00;;;3.31;80.99
28626;BME280;18905;42.668;23.364;2024-03-25T03:59:21;93885.06;;;3.37;81.36
28626;BME280;18905;42.668;23.364;2024-03-25T04:01:47;93885.38;;;3.30;80.02
28626;BME280;18905;42.668;23.364;2024-03-25T04:04:12;93906.31;;;3.27;80.01
28626;BME280;18905;42.668;23.364;2024-03-25T04:06:37;93906.16;;;3.37;80.00
28626;BME280;18905;42.668;23.364;2024-03-25T04:09:06;93912.91;;;3.28;80.62
28626;BME280;18905;42.668;23.364;2024-03-25T04:11:32;93923.66;;;3.25;81.18
28626;BME280;18905;42.668;23.364;2024-03-25T04:13:57;93911.50;;;3.17;80.66
28626;BME280;18905;42.668;23.364;2024-03-25T04:16:22;93917.41;;;3.13;80.33
28626;BME280;18905;42.668;23.364;2024-03-25T04:18:48;93924.94;;;3.23;80.82
28626;BME280;18905;42.668;23.364;2024-03-25T04:21:13;93916.72;;;3.07;80.39
28626;BME280;18905;42.668;23.364;2024-03-25T04:23:39;93926.53;;;3.19;80.17
28626;BME280;18905;42.668;23.364;2024-03-25T04:26:06;93929.41;;;3.31;79.45
28626;BME280;18905;42.668;23.364;2024-03-25T04:28:33;93927.50;;;3.23;79.96
28626;BME280;18905;42.668;23.364;2024-03-25T04:30:59;93943.19;;;3.30;79.33
28626;BME280;18905;42.668;23.364;2024-03-25T04:33:24;93942.47;;;3.24;78.12
28626;BME280;18905;42.668;23.364;2024-03-25T04:35:49;93938.34;;;3.28;79.71
28626;BME280;18905;42.668;23.364;2024-03-25T04:38:18;93948.66;;;3.18;80.69
28626;BME280;18905;42.668;23.364;2024-03-25T04:40:43;93964.69;;;3.19;79.64
28626;BME280;18905;42.668;23.364;2024-03-25T04:43:11;93960.91;;;3.16;79.16
28626;BME280;18905;42.668;23.364;2024-03-25T04:45:37;93986.78;;;3.23;78.88
28626;BME280;18905;42.668;23.364;2024-03-25T04:48:02;93975.09;;;3.22;79.12
28626;BME280;18905;42.668;23.364;2024-03-25T04:50:28;93988.19;;;3.34;78.12
28626;BME280;18905;42.668;23.364;2024-03-25T04:52:53;93985.25;;;3.22;78.75
28626;BME280;18905;42.668;23.364;2024-03-25T04:55:19;93997.38;;;3.30;78.03
28626;BME280;18905;42.668;23.364;2024-03-25T04:57:44;93990.34;;;3.22;77.83
28626;BME280;18905;42.668;23.364;2024-03-25T05:00:10;94001.75;;;3.30;78.93
28626;BME280;18905;42.668;23.364;2024-03-25T05:02:37;94008.13;;;3.27;78.19
28626;BME280;18905;42.668;23.364;2024-03-25T05:05:03;93992.72;;;3.37;77.66
28626;BME280;18905;42.668;23.364;2024-03-25T05:07:28;94004.22;;;3.35;79.73
28626;BME280;18905;42.668;23.364;2024-03-25T05:09:54;93992.72;;;3.37;77.97
28626;BME280;18905;42.668;23.364;2024-03-25T05:12:19;93981.53;;;3.38;76.90
28626;BME280;18905;42.668;23.364;2024-03-25T05:14:45;93997.34;;;3.35;78.23
28626;BME280;18905;42.668;23.364;2024-03-25T05:17:10;93990.63;;;3.44;76.95
28626;BME280;18905;42.668;23.364;2024-03-25T05:19:36;93991.00;;;3.56;76.78
28626;BME280;18905;42.668;23.364;2024-03-25T05:22:01;93993.88;;;3.50;76.62
28626;BME280;18905;42.668;23.364;2024-03-25T05:24:26;93984.84;;;3.39;75.48
28626;BME280;18905;42.668;23.364;2024-03-25T05:26:53;94007.72;;;3.62;75.42
28626;BME280;18905;42.668;23.364;2024-03-25T05:29:18;93990.75;;;3.53;76.09
28626;BME280;18905;42.668;23.364;2024-03-25T05:32:04;94006.03;;;3.53;75.66
28626;BME280;18905;42.668;23.364;2024-03-25T05:34:30;94002.88;;;3.42;75.73
28626;BME280;18905;42.668;23.364;2024-03-25T05:36:56;94004.31;;;3.48;75.70
28626;BME280;18905;42.668;23.364;2024-03-25T05:39:22;93992.16;;;3.45;76.02
28626;BME280;18905;42.668;23.364;2024-03-25T05:41:48;94010.44;;;3.47;75.61
28626;BME280;18905;42.668;23.364;2024-03-25T05:44:14;94009.19;;;3.45;74.08
28626;BME280;18905;42.668;23.364;2024-03-25T05:46:40;94006.47;;;3.60;73.76
28626;BME280;18905;42.668;23.364;2024-03-25T05:49:06;94002.38;;;3.40;75.03
28626;BME280;18905;42.668;23.364;2024-03-25T05:51:31;94015.88;;;3.41;75.28
28626;BME280;18905;42.668;23.364;2024-03-25T05:53:58;94021.22;;;3.39;74.60
28626;BME280;18905;42.668;23.364;2024-03-25T05:56:24;94035.44;;;3.45;75.24
28626;BME280;18905;42.668;23.364;2024-03-25T05:58:58;94011.53;;;3.18;75.56
28626;BME280;18905;42.668;23.364;2024-03-25T06:01:23;94040.56;;;3.40;75.08
28626;BME280;18905;42.668;23.364;2024-03-25T06:03:49;94048.59;;;3.52;75.21
28626;BME280;18905;42.668;23.364;2024-03-25T06:06:14;94045.44;;;3.60;74.89
28626;BME280;18905;42.668;23.364;2024-03-25T06:08:40;94043.44;;;3.57;74.24
28626;BME280;18905;42.668;23.364;2024-03-25T06:11:05;94043.66;;;3.61;73.97
28626;BME280;18905;42.668;23.364;2024-03-25T06:13:31;94051.19;;;3.71;73.92
28626;BME280;18905;42.668;23.364;2024-03-25T06:15:57;94066.94;;;3.97;72.90
28626;BME280;18905;42.668;23.364;2024-03-25T06:18:22;94068.72;;;3.96;72.95
28626;BME280;18905;42.668;23.364;2024-03-25T06:20:47;94079.19;;;4.56;71.90
28626;BME280;18905;42.668;23.364;2024-03-25T06:23:26;94076.47;;;5.17;69.85
28626;BME280;18905;42.668;23.364;2024-03-25T06:25:53;94094.19;;;5.27;66.45
28626;BME280;18905;42.668;23.364;2024-03-25T06:28:19;94086.06;;;5.38;67.53
28626;BME280;18905;42.668;23.364;2024-03-25T06:30:49;94073.44;;;5.74;66.97
28626;BME280;18905;42.668;23.364;2024-03-25T06:33:33;94092.38;;;5.87;65.67
28626;BME280;18905;42.668;23.364;2024-03-25T06:36:18;94079.34;;;4.96;67.45
28626;BME280;18905;42.668;23.364;2024-03-25T06:38:44;94095.19;;;5.71;64.85
28626;BME280;18905;42.668;23.364;2024-03-25T06:41:09;94099.06;;;6.73;63.23
28626;BME280;18905;42.668;23.364;2024-03-25T06:43:36;94077.09;;;6.22;61.44
28626;BME280;18905;42.668;23.364;2024-03-25T06:46:03;94107.63;;;6.68;61.06
28626;BME280;18905;42.668;23.364;2024-03-25T06:48:28;94103.22;;;6.46;61.60
28626;BME280;18905;42.668;23.364;2024-03-25T06:50:58;94113.03;;;6.67;61.91
28626;BME280;18905;42.668;23.364;2024-03-25T06:53:24;94124.22;;;7.15;60.41
28626;BME280;18905;42.668;23.364;2024-03-25T06:55:57;94110.69;;;6.57;61.84
28626;BME280;18905;42.668;23.364;2024-03-25T06:58:24;94119.72;;;6.13;62.24
28626;BME280;18905;42.668;23.364;2024-03-25T07:00:50;94127.00;;;6.47;61.98
28626;BME280;18905;42.668;23.364;2024-03-25T07:03:20;94114.69;;;7.29;59.57
28626;BME280;18905;42.668;23.364;2024-03-25T07:05:46;94125.88;;;7.11;61.32
28626;BME280;18905;42.668;23.364;2024-03-25T07:08:12;94120.13;;;7.58;58.79
28626;BME280;18905;42.668;23.364;2024-03-25T07:10:38;94125.97;;;6.84;60.56
28626;BME280;18905;42.668;23.364;2024-03-25T07:13:04;94129.13;;;7.03;59.33
28626;BME280;18905;42.668;23.364;2024-03-25T07:15:31;94127.44;;;7.20;59.21
28626;BME280;18905;42.668;23.364;2024-03-25T07:17:56;94120.03;;;8.11;56.72
28626;BME280;18905;42.668;23.364;2024-03-25T07:20:22;94121.19;;;7.96;57.75
28626;BME280;18905;42.668;23.364;2024-03-25T07:22:48;94149.69;;;7.86;55.55
28626;BME280;18905;42.668;23.364;2024-03-25T07:25:13;94129.91;;;7.56;58.22
28626;BME280;18905;42.668;23.364;2024-03-25T07:27:38;94152.00;;;7.21;57.77
28626;BME280;18905;42.668;23.364;2024-03-25T07:30:05;94136.72;;;7.61;55.49
28626;BME280;18905;42.668;23.364;2024-03-25T07:32:32;94141.72;;;7.96;55.63
28626;BME280;18905;42.668;23.364;2024-03-25T07:34:58;94137.25;;;8.76;55.33
28626;BME280;18905;42.668;23.364;2024-03-25T07:37:23;94136.84;;;7.86;55.54
28626;BME280;18905;42.668;23.364;2024-03-25T07:39:48;94131.06;;;8.85;53.65
28626;BME280;18905;42.668;23.364;2024-03-25T07:42:14;94123.66;;;9.35;51.65
28626;BME280;18905;42.668;23.364;2024-03-25T07:44:39;94139.53;;;8.86;52.83
28626;BME280;18905;42.668;23.364;2024-03-25T07:47:05;94138.72;;;8.42;53.41
28626;BME280;18905;42.668;23.364;2024-03-25T07:49:31;94153.25;;;8.64;52.30
28626;BME280;18905;42.668;23.364;2024-03-25T07:51:59;94138.91;;;8.63;52.79
28626;BME280;18905;42.668;23.364;2024-03-25T07:54:25;94151.13;;;8.10;54.23
28626;BME280;18905;42.668;23.364;2024-03-25T07:56:52;94138.31;;;8.66;52.53
28626;BME280;18905;42.668;23.364;2024-03-25T07:59:17;94153.56;;;8.62;52.39
28626;BME280;18905;42.668;23.364;2024-03-25T08:01:43;94149.66;;;8.74;51.62
28626;BME280;18905;42.668;23.364;2024-03-25T08:04:08;94141.94;;;8.56;53.11
28626;BME280;18905;42.668;23.364;2024-03-25T08:06:34;94141.94;;;8.65;51.56
28626;BME280;18905;42.668;23.364;2024-03-25T08:08:59;94144.81;;;8.89;51.51
28626;BME280;18905;42.668;23.364;2024-03-25T08:11:24;94156.34;;;8.27;51.91
28626;BME280;18905;42.668;23.364;2024-03-25T08:13:50;94169.25;;;8.52;52.25
28626;BME280;18905;42.668;23.364;2024-03-25T08:16:15;94136.91;;;8.34;53.64
28626;BME280;18905;42.668;23.364;2024-03-25T08:18:41;94168.88;;;8.37;53.64
28626;BME280;18905;42.668;23.364;2024-03-25T08:21:06;94174.47;;;8.30;51.46
28626;BME280;18905;42.668;23.364;2024-03-25T08:23:32;94174.75;;;8.85;52.79
28626;BME280;18905;42.668;23.364;2024-03-25T08:25:57;94168.50;;;8.52;54.06
28626;BME280;18905;42.668;23.364;2024-03-25T08:28:22;94165.81;;;8.91;52.25
28626;BME280;18905;42.668;23.364;2024-03-25T08:30:48;94167.00;;;9.62;51.48
28626;BME280;18905;42.668;23.364;2024-03-25T08:33:13;94160.56;;;9.94;49.65
28626;BME280;18905;42.668;23.364;2024-03-25T08:35:38;94163.19;;;9.85;49.20
28626;BME280;18905;42.668;23.364;2024-03-25T08:38:04;94166.09;;;9.67;48.63
28626;BME280;18905;42.668;23.364;2024-03-25T08:40:29;94175.06;;;8.75;51.48
28626;BME280;18905;42.668;23.364;2024-03-25T08:42:54;94171.72;;;8.83;51.62
28626;BME280;18905;42.668;23.364;2024-03-25T08:45:20;94174.28;;;8.83;51.09
28626;BME280;18905;42.668;23.364;2024-03-25T08:47:45;94162.34;;;8.79;51.25
28626;BME280;18905;42.668;23.364;2024-03-25T08:50:11;94167.34;;;9.26;49.71
28626;BME280;18905;42.668;23.364;2024-03-25T08:52:36;94171.44;;;9.45;47.29
28626;BME280;18905;42.668;23.364;2024-03-25T08:55:02;94195.47;;;9.49;48.67
28626;BME280;18905;42.668;23.364;2024-03-25T08:57:27;94170.81;;;9.05;49.97
28626;BME280;18905;42.668;23.364;2024-03-25T08:59:52;94177.75;;;8.96;50.35
28626;BME280;18905;42.668;23.364;2024-03-25T09:02:18;94201.19;;;8.77;51.94
28626;BME280;18905;42.668;23.364;2024-03-25T09:04:43;94190.94;;;9.11;51.08
28626;BME280;18905;42.668;23.364;2024-03-25T09:07:09;94163.41;;;9.20;47.94
28626;BME280;18905;42.668;23.364;2024-03-25T09:09:34;94184.91;;;8.34;50.34
28626;BME280;18905;42.668;23.364;2024-03-25T09:12:18;94179.91;;;9.11;49.84
28626;BME280;18905;42.668;23.364;2024-03-25T09:14:44;94185.13;;;9.83;48.84
28626;BME280;18905;42.668;23.364;2024-03-25T09:17:09;94191.91;;;10.13;47.54
28626;BME280;18905;42.668;23.364;2024-03-25T09:19:34;94194.56;;;9.36;48.61
28626;BME280;18905;42.668;23.364;2024-03-25T09:22:00;94201.78;;;8.83;49.87
28626;BME280;18905;42.668;23.364;2024-03-25T09:24:25;94208.44;;;8.75;49.86
28626;BME280;18905;42.668;23.364;2024-03-25T09:26:50;94205.00;;;8.40;50.83
28626;BME280;18905;42.668;23.364;2024-03-25T09:29:16;94214.44;;;8.01;51.54
28626;BME280;18905;42.668;23.364;2024-03-25T09:31:41;94213.34;;;7.84;52.58
28626;BME280;18905;42.668;23.364;2024-03-25T09:34:07;94218.22;;;7.72;52.33
28626;BME280;18905;42.668;23.364;2024-03-25T09:36:33;94217.41;;;7.85;53.10
28626;BME280;18905;42.668;23.364;2024-03-25T09:38:58;94203.53;;;8.48;51.32
28626;BME280;18905;42.668;23.364;2024-03-25T09:41:23;94209.13;;;8.50;51.01
28626;BME280;18905;42.668;23.364;2024-03-25T09:43:54;94200.88;;;8.87;50.45
28626;BME280;18905;42.668;23.364;2024-03-25T09:46:21;94212.88;;;9.17;49.73
28626;BME280;18905;42.668;23.364;2024-03-25T09:48:47;94221.19;;;9.31;48.99
28626;BME280;18905;42.668;23.364;2024-03-25T09:51:13;94226.75;;;8.43;51.33
28626;BME280;18905;42.668;23.364;2024-03-25T09:53:39;94228.38;;;8.78;49.40
28626;BME280;18905;42.668;23.364;2024-03-25T09:56:05;94225.47;;;8.62;51.51
28626;BME280;18905;42.668;23.364;2024-03-25T09:58:31;94231.09;;;8.34;51.90
28626;BME280;18905;42.668;23.364;2024-03-25T10:00:57;94227.00;;;8.33;51.36
28626;BME280;18905;42.668;23.364;2024-03-25T10:03:23;94206.19;;;8.34;51.61
28626;BME280;18905;42.668;23.364;2024-03-25T10:05:49;94207.28;;;8.50;50.35
28626;BME280;18905;42.668;23.364;2024-03-25T10:08:20;94212.97;;;8.78;49.68
28626;BME280;18905;42.668;23.364;2024-03-25T10:10:45;94231.56;;;8.36;50.11
28626;BME280;18905;42.668;23.364;2024-03-25T10:13:11;94231.81;;;8.74;49.48
28626;BME280;18905;42.668;23.364;2024-03-25T10:15:36;94230.84;;;9.17;49.16
28626;BME280;18905;42.668;23.364;2024-03-25T10:18:02;94225.41;;;9.53;48.25
28626;BME280;18905;42.668;23.364;2024-03-25T10:20:27;94225.41;;;8.93;48.32
28626;BME280;18905;42.668;23.364;2024-03-25T10:22:52;94238.81;;;8.90;48.62
28626;BME280;18905;42.668;23.364;2024-03-25T10:28:12;94227.06;;;8.19;50.29
28626;BME280;18905;42.668;23.364;2024-03-25T10:30:38;94225.53;;;8.80;49.76
28626;BME280;18905;42.668;23.364;2024-03-25T10:33:07;94229.59;;;8.81;49.59
28626;BME280;18905;42.668;23.364;2024-03-25T10:35:34;94195.75;;;9.56;47.46
28626;BME280;18905;42.668;23.364;2024-03-25T10:40:30;94218.16;;;9.12;46.29
28626;BME280;18905;42.668;23.364;2024-03-25T10:43:08;94221.16;;;9.66;44.84
28626;BME280;18905;42.668;23.364;2024-03-25T10:45:39;94220.13;;;9.15;45.05
28626;BME280;18905;42.668;23.364;2024-03-25T10:49:00;94206.00;;;9.90;45.21
28626;BME280;18905;42.668;23.364;2024-03-25T10:51:20;94216.09;;;10.03;42.50
28626;BME280;18905;42.668;23.364;2024-03-25T10:53:48;94215.31;;;10.20;41.84
28626;BME280;18905;42.668;23.364;2024-03-25T10:56:14;94216.53;;;10.90;41.73
28626;BME280;18905;42.668;23.364;2024-03-25T10:58:41;94209.81;;;11.18;41.63
28626;BME280;18905;42.668;23.364;2024-03-25T11:01:07;94212.34;;;10.01;43.77
28626;BME280;18905;42.668;23.364;2024-03-25T11:03:33;94208.66;;;10.19;42.84
28626;BME280;18905;42.668;23.364;2024-03-25T11:05:59;94214.63;;;9.85;42.01
28626;BME280;18905;42.668;23.364;2024-03-25T11:08:31;94202.59;;;9.17;44.53
28626;BME280;18905;42.668;23.364;2024-03-25T11:10:59;94211.50;;;9.20;44.36
28626;BME280;18905;42.668;23.364;2024-03-25T11:13:27;94208.13;;;8.68;44.89
28626;BME280;18905;42.668;23.364;2024-03-25T11:15:52;94199.69;;;8.37;45.21
28626;BME280;18905;42.668;23.364;2024-03-25T11:18:22;94208.34;;;8.49;46.02
28626;BME280;18905;42.668;23.364;2024-03-25T11:21:04;94198.06;;;9.31;43.26
28626;BME280;18905;42.668;23.364;2024-03-25T11:23:44;94195.06;;;10.01;42.64
28626;BME280;18905;42.668;23.364;2024-03-25T11:26:24;94210.31;;;10.61;41.93
28626;BME280;18905;42.668;23.364;2024-03-25T11:28:50;94206.22;;;10.60;42.21
28626;BME280;18905;42.668;23.364;2024-03-25T11:31:20;94212.34;;;9.84;43.35
28626;BME280;18905;42.668;23.364;2024-03-25T11:33:45;94224.59;;;9.95;44.23
28626;BME280;18905;42.668;23.364;2024-03-25T11:36:11;94228.81;;;10.55;44.15
28626;BME280;18905;42.668;23.364;2024-03-25T11:38:36;94234.78;;;10.76;43.19
28626;BME280;18905;42.668;23.364;2024-03-25T11:41:04;94234.13;;;11.08;43.33
28626;BME280;18905;42.668;23.364;2024-03-25T11:43:29;94250.88;;;10.35;45.16
28626;BME280;18905;42.668;23.364;2024-03-25T11:45:55;94228.22;;;10.12;45.20
28626;BME280;18905;42.668;23.364;2024-03-25T11:48:20;94230.63;;;10.08;45.43
28626;BME280;18905;42.668;23.364;2024-03-25T11:50:46;94231.78;;;9.47;46.77
28626;BME280;18905;42.668;23.364;2024-03-25T11:53:13;94219.66;;;9.22;48.08
28626;BME280;18905;42.668;23.364;2024-03-25T11:55:40;94225.53;;;9.82;47.17
28626;BME280;18905;42.668;23.364;2024-03-25T11:58:06;94225.81;;;9.89;47.20
28626;BME280;18905;42.668;23.364;2024-03-25T12:00:32;94233.88;;;9.71;47.01
28626;BME280;18905;42.668;23.364;2024-03-25T12:02:58;94235.66;;;9.96;46.56
28626;BME280;18905;42.668;23.364;2024-03-25T12:05:23;94230.09;;;9.77;45.87
28626;BME280;18905;42.668;23.364;2024-03-25T12:07:48;94233.44;;;9.60;45.90
28626;BME280;18905;42.668;23.364;2024-03-25T12:10:15;94246.97;;;10.21;44.84
28626;BME280;18905;42.668;23.364;2024-03-25T12:12:59;94233.06;;;9.96;44.25
28626;BME280;18905;42.668;23.364;2024-03-25T12:15:25;94246.91;;;9.31;45.72
28626;BME280;18905;42.668;23.364;2024-03-25T12:17:54;94208.78;;;9.16;47.42
28626;BME280;18905;42.668;23.364;2024-03-25T12:20:20;94221.03;;;9.62;46.71
28626;BME280;18905;42.668;23.364;2024-03-25T12:22:45;94224.63;;;9.87;45.60
28626;BME280;18905;42.668;23.364;2024-03-25T12:25:11;94211.97;;;9.56;45.69
28626;BME280;18905;42.668;23.364;2024-03-25T12:27:37;94218.75;;;9.69;46.76
28626;BME280;18905;42.668;23.364;2024-03-25T12:30:05;94226.03;;;9.24;46.29
28626;BME280;18905;42.668;23.364;2024-03-25T12:37:33;94209.84;;;9.24;48.57
28626;BME280;18905;42.668;23.364;2024-03-25T12:39:59;94230.22;;;9.80;46.13
28626;BME280;18905;42.668;23.364;2024-03-25T12:42:25;94223.81;;;10.21;45.05
28626;BME280;18905;42.668;23.364;2024-03-25T12:44:52;94230.19;;;10.06;44.14
28626;BME280;18905;42.668;23.364;2024-03-25T12:47:18;94239.78;;;9.54;45.63
28626;BME280;18905;42.668;23.364;2024-03-25T12:49:43;94227.22;;;9.53;45.20
28626;BME280;18905;42.668;23.364;2024-03-25T12:52:09;94236.34;;;10.31;43.73
28626;BME280;18905;42.668;23.364;2024-03-25T12:54:34;94234.47;;;9.59;44.28
28626;BME280;18905;42.668;23.364;2024-03-25T12:57:00;94240.38;;;9.77;43.56
28626;BME280;18905;42.668;23.364;2024-03-25T12:59:25;94238.72;;;10.36;43.23
28626;BME280;18905;42.668;23.364;2024-03-25T13:01:51;94242.63;;;9.18;41.70
28626;BME280;18905;42.668;23.364;2024-03-25T13:04:17;94250.50;;;9.30;43.43
28626;BME280;18905;42.668;23.364;2024-03-25T13:06:42;94231.91;;;9.25;44.64